sensor_id;sensor_type;location;lat;lon;timestamp;P1;durP1;ratioP1;P2;durP2;ratioP2
10333;SDS011;5212;47.892;16.406;2023-12-20T00:00:28;16.47;;;10.67;;
10333;SDS011;5212;47.892;16.406;2023-12-20T00:02:55;14.40;;;9.67;;
10333;SDS011;5212;47.892;16.406;2023-12-20T00:05:21;14.73;;;9.67;;
10333;SDS011;5212;47.892;16.406;2023-12-20T00:07:48;14.90;;;9.70;;
10333;SDS011;5212;47.892;16.406;2023-12-20T00:10:15;16.77;;;9.87;;
10333;SDS011;5212;47.892;16.406;2023-12-20T00:12:41;13.33;;;9.70;;
10333;SDS011;5212;47.892;16.406;2023-12-20T00:15:10;17.90;;;11.47;;
10333;SDS011;5212;47.892;16.406;2023-12-20T00:17:36;17.77;;;10.90;;
10333;SDS011;5212;47.892;16.406;2023-12-20T00:20:03;16.73;;;10.83;;
10333;SDS011;5212;47.892;16.406;2023-12-20T00:22:31;15.93;;;10.37;;
10333;SDS011;5212;47.892;16.406;2023-12-20T00:24:58;16.53;;;10.40;;
10333;SDS011;5212;47.892;16.406;2023-12-20T00:27:24;13.13;;;9.20;;
10333;SDS011;5212;47.892;16.406;2023-12-20T00:29:51;13.80;;;9.37;;
10333;SDS011;5212;47.892;16.406;2023-12-20T00:32:19;14.50;;;9.73;;
10333;SDS011;5212;47.892;16.406;2023-12-20T00:34:46;11.93;;;9.10;;
10333;SDS011;5212;47.892;16.406;2023-12-20T00:37:12;15.03;;;9.70;;
10333;SDS011;5212;47.892;16.406;2023-12-20T00:39:39;14.07;;;9.40;;
10333;SDS011;5212;47.892;16.406;2023-12-20T00:42:05;15.50;;;10.53;;
10333;SDS011;5212;47.892;16.406;2023-12-20T00:44:32;14.30;;;9.53;;
10333;SDS011;5212;47.892;16.406;2023-12-20T00:46:59;10.93;;;8.63;;
10333;SDS011;5212;47.892;16.406;2023-12-20T00:49:27;16.40;;;10.70;;
10333;SDS011;5212;47.892;16.406;2023-12-20T00:51:54;17.10;;;10.27;;
10333;SDS011;5212;47.892;16.406;2023-12-20T00:54:20;15.03;;;9.17;;
10333;SDS011;5212;47.892;16.406;2023-12-20T00:56:47;14.47;;;9.60;;
10333;SDS011;5212;47.892;16.406;2023-12-20T00:59:14;15.10;;;9.37;;
10333;SDS011;5212;47.892;16.406;2023-12-20T01:01:42;14.13;;;9.77;;
10333;SDS011;5212;47.892;16.406;2023-12-20T01:04:09;13.10;;;9.13;;
10333;SDS011;5212;47.892;16.406;2023-12-20T01:06:37;18.40;;;10.47;;
10333;SDS011;5212;47.892;16.406;2023-12-20T01:09:03;17.03;;;11.73;;
10333;SDS011;5212;47.892;16.406;2023-12-20T01:11:30;13.50;;;9.37;;
10333;SDS011;5212;47.892;16.406;2023-12-20T01:13:57;15.97;;;10.20;;
10333;SDS011;5212;47.892;16.406;2023-12-20T01:16:23;14.97;;;9.90;;
10333;SDS011;5212;47.892;16.406;2023-12-20T01:23:54;15.43;;;10.07;;
10333;SDS011;5212;47.892;16.406;2023-12-20T01:26:21;14.17;;;10.37;;
10333;SDS011;5212;47.892;16.406;2023-12-20T01:28:47;13.17;;;9.83;;
10333;SDS011;5212;47.892;16.406;2023-12-20T01:31:14;15.23;;;10.33;;
10333;SDS011;5212;47.892;16.406;2023-12-20T01:33:41;15.70;;;10.20;;
10333;SDS011;5212;47.892;16.406;2023-12-20T01:36:07;15.73;;;9.97;;
10333;SDS011;5212;47.892;16.406;2023-12-20T01:38:35;14.63;;;9.80;;
10333;SDS011;5212;47.892;16.406;2023-12-20T01:41:03;15.40;;;9.87;;
10333;SDS011;5212;47.892;16.406;2023-12-20T01:43:30;22.13;;;13.87;;
10333;SDS011;5212;47.892;16.406;2023-12-20T01:45:57;20.00;;;13.27;;
10333;SDS011;5212;47.892;16.406;2023-12-20T01:48:24;28.23;;;14.77;;
10333;SDS011;5212;47.892;16.406;2023-12-20T01:50:51;21.23;;;12.53;;
10333;SDS011;5212;47.892;16.406;2023-12-20T01:53:18;28.67;;;17.13;;
10333;SDS011;5212;47.892;16.406;2023-12-20T01:55:45;26.33;;;14.63;;
10333;SDS011;5212;47.892;16.406;2023-12-20T01:58:15;22.83;;;14.37;;
10333;SDS011;5212;47.892;16.406;2023-12-20T02:00:42;24.90;;;14.60;;
10333;SDS011;5212;47.892;16.406;2023-12-20T02:03:08;25.43;;;14.53;;
10333;SDS011;5212;47.892;16.406;2023-12-20T02:05:35;23.03;;;12.97;;
10333;SDS011;5212;47.892;16.406;2023-12-20T02:08:02;30.17;;;17.67;;
10333;SDS011;5212;47.892;16.406;2023-12-20T02:10:30;29.63;;;16.47;;
10333;SDS011;5212;47.892;16.406;2023-12-20T02:12:57;29.57;;;15.60;;
10333;SDS011;5212;47.892;16.406;2023-12-20T02:15:25;25.97;;;14.23;;
10333;SDS011;5212;47.892;16.406;2023-12-20T02:17:52;22.50;;;12.00;;
10333;SDS011;5212;47.892;16.406;2023-12-20T02:20:19;19.23;;;12.10;;
10333;SDS011;5212;47.892;16.406;2023-12-20T02:22:47;18.13;;;12.03;;
10333;SDS011;5212;47.892;16.406;2023-12-20T02:25:14;18.07;;;12.03;;
10333;SDS011;5212;47.892;16.406;2023-12-20T02:27:41;16.07;;;11.10;;
10333;SDS011;5212;47.892;16.406;2023-12-20T02:30:08;13.93;;;9.63;;
10333;SDS011;5212;47.892;16.406;2023-12-20T02:32:35;15.30;;;10.27;;
10333;SDS011;5212;47.892;16.406;2023-12-20T02:35:01;17.07;;;11.70;;
10333;SDS011;5212;47.892;16.406;2023-12-20T02:37:28;18.50;;;11.50;;
10333;SDS011;5212;47.892;16.406;2023-12-20T02:39:56;15.80;;;10.73;;
10333;SDS011;5212;47.892;16.406;2023-12-20T02:42:23;17.33;;;10.80;;
10333;SDS011;5212;47.892;16.406;2023-12-20T02:44:49;22.90;;;11.57;;
10333;SDS011;5212;47.892;16.406;2023-12-20T02:47:16;19.63;;;11.27;;
10333;SDS011;5212;47.892;16.406;2023-12-20T02:49:43;19.00;;;12.03;;
10333;SDS011;5212;47.892;16.406;2023-12-20T02:52:09;15.63;;;10.43;;
10333;SDS011;5212;47.892;16.406;2023-12-20T02:54:36;19.17;;;9.73;;
10333;SDS011;5212;47.892;16.406;2023-12-20T02:57:04;16.77;;;11.20;;
10333;SDS011;5212;47.892;16.406;2023-12-20T02:59:31;20.50;;;11.47;;
10333;SDS011;5212;47.892;16.406;2023-12-20T03:01:57;17.07;;;11.10;;
10333;SDS011;5212;47.892;16.406;2023-12-20T03:04:24;13.97;;;9.97;;
10333;SDS011;5212;47.892;16.406;2023-12-20T03:06:50;15.57;;;10.87;;
10333;SDS011;5212;47.892;16.406;2023-12-20T03:09:17;15.87;;;10.40;;
10333;SDS011;5212;47.892;16.406;2023-12-20T03:11:44;14.97;;;10.30;;
10333;SDS011;5212;47.892;16.406;2023-12-20T03:14:12;13.83;;;9.57;;
10333;SDS011;5212;47.892;16.406;2023-12-20T03:16:38;15.93;;;10.00;;
10333;SDS011;5212;47.892;16.406;2023-12-20T03:19:05;17.00;;;10.63;;
10333;SDS011;5212;47.892;16.406;2023-12-20T03:21:32;17.17;;;10.97;;
10333;SDS011;5212;47.892;16.406;2023-12-20T03:23:58;16.00;;;11.00;;
10333;SDS011;5212;47.892;16.406;2023-12-20T03:26:25;17.30;;;10.67;;
10333;SDS011;5212;47.892;16.406;2023-12-20T03:28:51;15.37;;;10.93;;
10333;SDS011;5212;47.892;16.406;2023-12-20T03:31:20;14.27;;;10.83;;
10333;SDS011;5212;47.892;16.406;2023-12-20T03:33:47;16.23;;;10.50;;
10333;SDS011;5212;47.892;16.406;2023-12-20T03:36:13;19.53;;;9.83;;
10333;SDS011;5212;47.892;16.406;2023-12-20T03:38:40;18.67;;;11.87;;
10333;SDS011;5212;47.892;16.406;2023-12-20T03:41:07;18.07;;;10.70;;
10333;SDS011;5212;47.892;16.406;2023-12-20T03:43:33;15.53;;;10.10;;
10333;SDS011;5212;47.892;16.406;2023-12-20T03:46:00;15.17;;;10.63;;
10333;SDS011;5212;47.892;16.406;2023-12-20T03:48:30;15.07;;;10.17;;
10333;SDS011;5212;47.892;16.406;2023-12-20T03:50:56;18.80;;;10.23;;
10333;SDS011;5212;47.892;16.406;2023-12-20T03:53:23;15.60;;;11.87;;
10333;SDS011;5212;47.892;16.406;2023-12-20T03:55:50;14.67;;;9.97;;
10333;SDS011;5212;47.892;16.406;2023-12-20T03:58:16;14.70;;;9.87;;
10333;SDS011;5212;47.892;16.406;2023-12-20T04:00:43;11.77;;;8.17;;
10333;SDS011;5212;47.892;16.406;2023-12-20T04:03:10;13.07;;;8.43;;
10333;SDS011;5212;47.892;16.406;2023-12-20T04:05:39;21.67;;;10.83;;
10333;SDS011;5212;47.892;16.406;2023-12-20T04:08:06;14.10;;;9.67;;
10333;SDS011;5212;47.892;16.406;2023-12-20T04:10:33;14.13;;;9.80;;
10333;SDS011;5212;47.892;16.406;2023-12-20T04:13:00;15.63;;;9.93;;
10333;SDS011;5212;47.892;16.406;2023-12-20T04:15:26;16.70;;;10.53;;
10333;SDS011;5212;47.892;16.406;2023-12-20T04:17:53;15.83;;;10.87;;
10333;SDS011;5212;47.892;16.406;2023-12-20T04:20:20;15.73;;;10.67;;
10333;SDS011;5212;47.892;16.406;2023-12-20T04:22:48;15.87;;;10.67;;
10333;SDS011;5212;47.892;16.406;2023-12-20T04:25:14;13.70;;;9.63;;
10333;SDS011;5212;47.892;16.406;2023-12-20T04:27:41;14.83;;;10.20;;
10333;SDS011;5212;47.892;16.406;2023-12-20T04:30:08;14.93;;;10.27;;
10333;SDS011;5212;47.892;16.406;2023-12-20T04:32:35;19.73;;;11.33;;
10333;SDS011;5212;47.892;16.406;2023-12-20T04:35:02;14.33;;;10.17;;
10333;SDS011;5212;47.892;16.406;2023-12-20T04:37:29;13.90;;;9.10;;
10333;SDS011;5212;47.892;16.406;2023-12-20T04:39:57;14.63;;;9.50;;
10333;SDS011;5212;47.892;16.406;2023-12-20T04:42:24;16.80;;;10.77;;
10333;SDS011;5212;47.892;16.406;2023-12-20T04:44:50;15.80;;;10.40;;
10333;SDS011;5212;47.892;16.406;2023-12-20T04:47:17;12.20;;;9.10;;
10333;SDS011;5212;47.892;16.406;2023-12-20T04:49:43;12.90;;;9.40;;
10333;SDS011;5212;47.892;16.406;2023-12-20T04:52:10;15.60;;;9.87;;
10333;SDS011;5212;47.892;16.406;2023-12-20T04:54:37;13.60;;;9.13;;
10333;SDS011;5212;47.892;16.406;2023-12-20T04:57:05;13.23;;;10.27;;
10333;SDS011;5212;47.892;16.406;2023-12-20T04:59:31;15.10;;;10.03;;
10333;SDS011;5212;47.892;16.406;2023-12-20T05:01:58;15.63;;;10.30;;
10333;SDS011;5212;47.892;16.406;2023-12-20T05:04:25;15.40;;;10.57;;
10333;SDS011;5212;47.892;16.406;2023-12-20T05:06:52;15.80;;;10.80;;
10333;SDS011;5212;47.892;16.406;2023-12-20T05:09:19;16.33;;;10.27;;
10333;SDS011;5212;47.892;16.406;2023-12-20T05:11:45;12.53;;;8.43;;
10333;SDS011;5212;47.892;16.406;2023-12-20T05:14:13;14.77;;;10.00;;
10333;SDS011;5212;47.892;16.406;2023-12-20T05:16:40;13.83;;;10.10;;
10333;SDS011;5212;47.892;16.406;2023-12-20T05:19:07;12.67;;;8.53;;
10333;SDS011;5212;47.892;16.406;2023-12-20T05:21:33;16.80;;;11.00;;
10333;SDS011;5212;47.892;16.406;2023-12-20T05:24:01;17.30;;;11.43;;
10333;SDS011;5212;47.892;16.406;2023-12-20T05:26:27;15.90;;;10.13;;
10333;SDS011;5212;47.892;16.406;2023-12-20T05:28:54;18.23;;;12.40;;
10333;SDS011;5212;47.892;16.406;2023-12-20T05:31:22;17.90;;;11.93;;
10333;SDS011;5212;47.892;16.406;2023-12-20T05:33:49;35.53;;;21.77;;
10333;SDS011;5212;47.892;16.406;2023-12-20T05:36:16;27.17;;;16.27;;
10333;SDS011;5212;47.892;16.406;2023-12-20T05:38:42;20.00;;;13.03;;
10333;SDS011;5212;47.892;16.406;2023-12-20T05:41:09;16.93;;;10.90;;
10333;SDS011;5212;47.892;16.406;2023-12-20T05:43:35;16.00;;;10.73;;
10333;SDS011;5212;47.892;16.406;2023-12-20T05:46:02;18.40;;;11.60;;
10333;SDS011;5212;47.892;16.406;2023-12-20T05:48:30;20.97;;;12.47;;
10333;SDS011;5212;47.892;16.406;2023-12-20T05:50:57;18.97;;;13.00;;
10333;SDS011;5212;47.892;16.406;2023-12-20T05:53:24;19.47;;;12.87;;
10333;SDS011;5212;47.892;16.406;2023-12-20T05:55:50;15.07;;;10.23;;
10333;SDS011;5212;47.892;16.406;2023-12-20T05:58:17;18.73;;;11.27;;
10333;SDS011;5212;47.892;16.406;2023-12-20T06:00:44;16.20;;;10.03;;
10333;SDS011;5212;47.892;16.406;2023-12-20T06:03:10;14.47;;;9.57;;
10333;SDS011;5212;47.892;16.406;2023-12-20T06:05:38;14.97;;;9.70;;
10333;SDS011;5212;47.892;16.406;2023-12-20T06:08:05;15.03;;;10.77;;
10333;SDS011;5212;47.892;16.406;2023-12-20T06:10:32;15.67;;;9.80;;
10333;SDS011;5212;47.892;16.406;2023-12-20T06:12:59;12.67;;;8.83;;
10333;SDS011;5212;47.892;16.406;2023-12-20T06:15:25;14.20;;;9.90;;
10333;SDS011;5212;47.892;16.406;2023-12-20T06:17:52;14.77;;;9.70;;
10333;SDS011;5212;47.892;16.406;2023-12-20T06:20:19;14.87;;;10.57;;
10333;SDS011;5212;47.892;16.406;2023-12-20T06:22:47;18.60;;;12.10;;
10333;SDS011;5212;47.892;16.406;2023-12-20T06:25:14;15.17;;;10.50;;
10333;SDS011;5212;47.892;16.406;2023-12-20T06:27:40;17.27;;;11.50;;
10333;SDS011;5212;47.892;16.406;2023-12-20T06:30:07;15.47;;;10.97;;
10333;SDS011;5212;47.892;16.406;2023-12-20T06:32:35;15.27;;;10.80;;
10333;SDS011;5212;47.892;16.406;2023-12-20T06:35:03;14.97;;;10.77;;
10333;SDS011;5212;47.892;16.406;2023-12-20T06:37:30;18.30;;;12.27;;
10333;SDS011;5212;47.892;16.406;2023-12-20T06:39:58;15.17;;;10.30;;
10333;SDS011;5212;47.892;16.406;2023-12-20T06:42:25;18.67;;;12.03;;
10333;SDS011;5212;47.892;16.406;2023-12-20T06:44:51;18.33;;;11.97;;
10333;SDS011;5212;47.892;16.406;2023-12-20T06:47:18;16.80;;;10.93;;
10333;SDS011;5212;47.892;16.406;2023-12-20T06:49:45;14.47;;;10.73;;
10333;SDS011;5212;47.892;16.406;2023-12-20T06:52:12;17.10;;;10.90;;
10333;SDS011;5212;47.892;16.406;2023-12-20T06:54:38;16.30;;;10.00;;
10333;SDS011;5212;47.892;16.406;2023-12-20T06:57:06;15.53;;;10.23;;
10333;SDS011;5212;47.892;16.406;2023-12-20T06:59:37;18.77;;;12.13;;
10333;SDS011;5212;47.892;16.406;2023-12-20T07:02:05;17.77;;;11.90;;
10333;SDS011;5212;47.892;16.406;2023-12-20T07:04:31;15.93;;;10.63;;
10333;SDS011;5212;47.892;16.406;2023-12-20T07:06:58;18.73;;;12.50;;
10333;SDS011;5212;47.892;16.406;2023-12-20T07:09:25;17.83;;;12.23;;
10333;SDS011;5212;47.892;16.406;2023-12-20T07:11:52;16.27;;;11.27;;
10333;SDS011;5212;47.892;16.406;2023-12-20T07:14:20;15.97;;;10.83;;
10333;SDS011;5212;47.892;16.406;2023-12-20T07:16:47;15.77;;;10.90;;
10333;SDS011;5212;47.892;16.406;2023-12-20T07:19:13;15.00;;;10.37;;
10333;SDS011;5212;47.892;16.406;2023-12-20T07:21:40;20.63;;;12.77;;
10333;SDS011;5212;47.892;16.406;2023-12-20T07:24:07;21.33;;;13.70;;
10333;SDS011;5212;47.892;16.406;2023-12-20T07:26:34;37.67;;;21.47;;
10333;SDS011;5212;47.892;16.406;2023-12-20T07:29:03;43.37;;;25.07;;
10333;SDS011;5212;47.892;16.406;2023-12-20T07:31:31;38.43;;;23.50;;
10333;SDS011;5212;47.892;16.406;2023-12-20T07:33:57;29.47;;;17.47;;
10333;SDS011;5212;47.892;16.406;2023-12-20T07:36:24;24.30;;;14.90;;
10333;SDS011;5212;47.892;16.406;2023-12-20T07:38:51;26.30;;;15.00;;
10333;SDS011;5212;47.892;16.406;2023-12-20T07:41:17;22.03;;;13.70;;
10333;SDS011;5212;47.892;16.406;2023-12-20T07:43:46;20.63;;;12.33;;
10333;SDS011;5212;47.892;16.406;2023-12-20T07:46:12;31.73;;;18.07;;
10333;SDS011;5212;47.892;16.406;2023-12-20T07:48:41;25.50;;;17.57;;
10333;SDS011;5212;47.892;16.406;2023-12-20T07:51:07;28.37;;;17.33;;
10333;SDS011;5212;47.892;16.406;2023-12-20T07:53:35;27.53;;;16.90;;
10333;SDS011;5212;47.892;16.406;2023-12-20T07:56:02;23.43;;;15.43;;
10333;SDS011;5212;47.892;16.406;2023-12-20T07:58:33;18.63;;;12.63;;
10333;SDS011;5212;47.892;16.406;2023-12-20T08:01:00;19.77;;;12.23;;
10333;SDS011;5212;47.892;16.406;2023-12-20T08:03:27;17.60;;;11.83;;
10333;SDS011;5212;47.892;16.406;2023-12-20T08:05:55;19.63;;;12.60;;
10333;SDS011;5212;47.892;16.406;2023-12-20T08:08:24;15.40;;;10.63;;
10333;SDS011;5212;47.892;16.406;2023-12-20T08:10:51;17.23;;;10.03;;
10333;SDS011;5212;47.892;16.406;2023-12-20T08:13:17;14.07;;;8.20;;
10333;SDS011;5212;47.892;16.406;2023-12-20T08:15:44;11.50;;;6.87;;
10333;SDS011;5212;47.892;16.406;2023-12-20T08:18:11;10.20;;;6.87;;
10333;SDS011;5212;47.892;16.406;2023-12-20T08:20:37;9.93;;;6.67;;
10333;SDS011;5212;47.892;16.406;2023-12-20T08:23:05;10.20;;;6.57;;
10333;SDS011;5212;47.892;16.406;2023-12-20T08:25:32;10.83;;;6.60;;
10333;SDS011;5212;47.892;16.406;2023-12-20T08:27:59;10.37;;;6.40;;
10333;SDS011;5212;47.892;16.406;2023-12-20T08:30:25;11.23;;;6.60;;
10333;SDS011;5212;47.892;16.406;2023-12-20T08:32:52;10.97;;;6.00;;
10333;SDS011;5212;47.892;16.406;2023-12-20T08:35:19;10.90;;;6.07;;
10333;SDS011;5212;47.892;16.406;2023-12-20T08:37:46;10.00;;;6.60;;
10333;SDS011;5212;47.892;16.406;2023-12-20T08:40:14;12.80;;;6.27;;
10333;SDS011;5212;47.892;16.406;2023-12-20T08:42:40;19.10;;;7.77;;
10333;SDS011;5212;47.892;16.406;2023-12-20T08:45:07;19.10;;;8.20;;
10333;SDS011;5212;47.892;16.406;2023-12-20T08:47:34;11.63;;;6.43;;
10333;SDS011;5212;47.892;16.406;2023-12-20T08:50:02;24.90;;;10.73;;
10333;SDS011;5212;47.892;16.406;2023-12-20T08:52:28;31.10;;;11.70;;
10333;SDS011;5212;47.892;16.406;2023-12-20T08:54:55;16.73;;;7.00;;
10333;SDS011;5212;47.892;16.406;2023-12-20T08:57:23;14.73;;;6.10;;
10333;SDS011;5212;47.892;16.406;2023-12-20T08:59:50;19.30;;;7.73;;
10333;SDS011;5212;47.892;16.406;2023-12-20T09:02:17;15.90;;;6.80;;
10333;SDS011;5212;47.892;16.406;2023-12-20T09:04:43;16.20;;;7.53;;
10333;SDS011;5212;47.892;16.406;2023-12-20T09:07:20;15.00;;;7.47;;
10333;SDS011;5212;47.892;16.406;2023-12-20T09:09:47;6.97;;;4.20;;
10333;SDS011;5212;47.892;16.406;2023-12-20T09:12:14;3.30;;;2.23;;
10333;SDS011;5212;47.892;16.406;2023-12-20T09:14:42;2.57;;;1.80;;
10333;SDS011;5212;47.892;16.406;2023-12-20T09:17:09;2.10;;;1.60;;
10333;SDS011;5212;47.892;16.406;2023-12-20T09:19:37;6.03;;;3.40;;
10333;SDS011;5212;47.892;16.406;2023-12-20T09:22:03;13.97;;;6.43;;
10333;SDS011;5212;47.892;16.406;2023-12-20T09:24:30;2.33;;;1.50;;
10333;SDS011;5212;47.892;16.406;2023-12-20T09:26:57;1.80;;;1.40;;
10333;SDS011;5212;47.892;16.406;2023-12-20T09:29:24;1.93;;;1.43;;
10333;SDS011;5212;47.892;16.406;2023-12-20T09:31:52;1.47;;;1.17;;
10333;SDS011;5212;47.892;16.406;2023-12-20T09:34:18;1.10;;;1.00;;
10333;SDS011;5212;47.892;16.406;2023-12-20T09:36:45;1.23;;;0.97;;
10333;SDS011;5212;47.892;16.406;2023-12-20T09:39:12;1.87;;;1.10;;
10333;SDS011;5212;47.892;16.406;2023-12-20T09:41:42;2.03;;;0.90;;
10333;SDS011;5212;47.892;16.406;2023-12-20T09:44:12;1.80;;;1.10;;
10333;SDS011;5212;47.892;16.406;2023-12-20T09:46:43;3.10;;;1.10;;
10333;SDS011;5212;47.892;16.406;2023-12-20T09:49:12;1.30;;;1.20;;
10333;SDS011;5212;47.892;16.406;2023-12-20T09:51:39;1.00;;;0.90;;
10333;SDS011;5212;47.892;16.406;2023-12-20T09:54:07;1.23;;;1.00;;
10333;SDS011;5212;47.892;16.406;2023-12-20T09:56:33;1.63;;;1.10;;
10333;SDS011;5212;47.892;16.406;2023-12-20T09:59:00;1.80;;;1.20;;
10333;SDS011;5212;47.892;16.406;2023-12-20T10:01:27;1.93;;;1.07;;
10333;SDS011;5212;47.892;16.406;2023-12-20T10:03:54;2.50;;;1.30;;
10333;SDS011;5212;47.892;16.406;2023-12-20T10:06:22;1.80;;;1.10;;
10333;SDS011;5212;47.892;16.406;2023-12-20T10:08:49;2.07;;;1.20;;
10333;SDS011;5212;47.892;16.406;2023-12-20T10:11:16;1.47;;;1.03;;
10333;SDS011;5212;47.892;16.406;2023-12-20T10:13:43;1.47;;;1.00;;
10333;SDS011;5212;47.892;16.406;2023-12-20T10:16:09;1.87;;;1.20;;
10333;SDS011;5212;47.892;16.406;2023-12-20T10:18:36;2.07;;;1.20;;
10333;SDS011;5212;47.892;16.406;2023-12-20T10:21:03;1.70;;;1.10;;
10333;SDS011;5212;47.892;16.406;2023-12-20T10:23:31;1.30;;;1.10;;
10333;SDS011;5212;47.892;16.406;2023-12-20T10:25:58;2.23;;;1.23;;
10333;SDS011;5212;47.892;16.406;2023-12-20T10:28:25;0.87;;;0.87;;
10333;SDS011;5212;47.892;16.406;2023-12-20T10:30:53;1.57;;;1.00;;
10333;SDS011;5212;47.892;16.406;2023-12-20T10:33:23;1.13;;;1.00;;
10333;SDS011;5212;47.892;16.406;2023-12-20T10:35:50;0.70;;;0.67;;
10333;SDS011;5212;47.892;16.406;2023-12-20T10:38:18;1.47;;;0.80;;
10333;SDS011;5212;47.892;16.406;2023-12-20T10:40:46;1.27;;;0.70;;
10333;SDS011;5212;47.892;16.406;2023-12-20T10:43:13;0.93;;;0.70;;
10333;SDS011;5212;47.892;16.406;2023-12-20T10:45:41;1.30;;;0.90;;
10333;SDS011;5212;47.892;16.406;2023-12-20T10:48:09;1.80;;;1.00;;
10333;SDS011;5212;47.892;16.406;2023-12-20T10:50:36;0.80;;;0.60;;
10333;SDS011;5212;47.892;16.406;2023-12-20T10:53:05;0.90;;;0.70;;
10333;SDS011;5212;47.892;16.406;2023-12-20T10:55:32;1.37;;;0.77;;
10333;SDS011;5212;47.892;16.406;2023-12-20T10:58:01;0.67;;;0.63;;
10333;SDS011;5212;47.892;16.406;2023-12-20T11:00:31;0.70;;;0.60;;
10333;SDS011;5212;47.892;16.406;2023-12-20T11:02:59;2.10;;;0.83;;
10333;SDS011;5212;47.892;16.406;2023-12-20T11:05:31;1.30;;;0.90;;
10333;SDS011;5212;47.892;16.406;2023-12-20T11:08:01;0.70;;;0.70;;
10333;SDS011;5212;47.892;16.406;2023-12-20T11:10:31;0.60;;;0.60;;
10333;SDS011;5212;47.892;16.406;2023-12-20T11:13:04;0.70;;;0.60;;
10333;SDS011;5212;47.892;16.406;2023-12-20T11:15:43;0.83;;;0.63;;
10333;SDS011;5212;47.892;16.406;2023-12-20T11:18:11;0.80;;;0.63;;
10333;SDS011;5212;47.892;16.406;2023-12-20T11:20:38;0.70;;;0.60;;
10333;SDS011;5212;47.892;16.406;2023-12-20T11:23:05;0.67;;;0.50;;
10333;SDS011;5212;47.892;16.406;2023-12-20T11:25:38;2.33;;;0.60;;
10333;SDS011;5212;47.892;16.406;2023-12-20T11:28:14;0.80;;;0.60;;
10333;SDS011;5212;47.892;16.406;2023-12-20T11:30:46;0.80;;;0.60;;
10333;SDS011;5212;47.892;16.406;2023-12-20T11:33:13;0.47;;;0.43;;
10333;SDS011;5212;47.892;16.406;2023-12-20T11:35:40;0.50;;;0.50;;
10333;SDS011;5212;47.892;16.406;2023-12-20T11:38:07;0.60;;;0.60;;
10333;SDS011;5212;47.892;16.406;2023-12-20T11:40:35;1.10;;;0.60;;
10333;SDS011;5212;47.892;16.406;2023-12-20T11:43:02;0.63;;;0.50;;
10333;SDS011;5212;47.892;16.406;2023-12-20T11:45:30;0.70;;;0.50;;
10333;SDS011;5212;47.892;16.406;2023-12-20T11:47:57;0.80;;;0.60;;
10333;SDS011;5212;47.892;16.406;2023-12-20T11:50:24;0.60;;;0.60;;
10333;SDS011;5212;47.892;16.406;2023-12-20T11:52:51;0.93;;;0.67;;
10333;SDS011;5212;47.892;16.406;2023-12-20T11:55:18;0.83;;;0.70;;
10333;SDS011;5212;47.892;16.406;2023-12-20T11:57:45;0.90;;;0.80;;
10333;SDS011;5212;47.892;16.406;2023-12-20T12:00:12;0.87;;;0.70;;
10333;SDS011;5212;47.892;16.406;2023-12-20T12:02:41;0.97;;;0.47;;
10333;SDS011;5212;47.892;16.406;2023-12-20T12:05:08;0.60;;;0.50;;
10333;SDS011;5212;47.892;16.406;2023-12-20T12:07:35;1.73;;;1.00;;
10333;SDS011;5212;47.892;16.406;2023-12-20T12:10:02;1.13;;;1.03;;
10333;SDS011;5212;47.892;16.406;2023-12-20T12:12:29;0.70;;;0.63;;
10333;SDS011;5212;47.892;16.406;2023-12-20T12:14:57;1.10;;;0.80;;
10333;SDS011;5212;47.892;16.406;2023-12-20T12:17:24;1.07;;;0.80;;
10333;SDS011;5212;47.892;16.406;2023-12-20T12:20:01;3.40;;;0.83;;
10333;SDS011;5212;47.892;16.406;2023-12-20T12:22:28;0.83;;;0.70;;
10333;SDS011;5212;47.892;16.406;2023-12-20T12:24:58;0.50;;;0.40;;
10333;SDS011;5212;47.892;16.406;2023-12-20T12:27:25;0.40;;;0.40;;
10333;SDS011;5212;47.892;16.406;2023-12-20T12:30:00;1.27;;;0.60;;
10333;SDS011;5212;47.892;16.406;2023-12-20T12:32:27;2.83;;;0.50;;
10333;SDS011;5212;47.892;16.406;2023-12-20T12:34:55;0.33;;;0.33;;
10333;SDS011;5212;47.892;16.406;2023-12-20T12:37:22;0.57;;;0.50;;
10333;SDS011;5212;47.892;16.406;2023-12-20T12:39:50;5.10;;;0.57;;
10333;SDS011;5212;47.892;16.406;2023-12-20T12:42:16;0.40;;;0.40;;
10333;SDS011;5212;47.892;16.406;2023-12-20T12:44:43;0.60;;;0.50;;
10333;SDS011;5212;47.892;16.406;2023-12-20T12:47:09;0.50;;;0.40;;
10333;SDS011;5212;47.892;16.406;2023-12-20T12:49:36;0.33;;;0.33;;
10333;SDS011;5212;47.892;16.406;2023-12-20T12:52:06;0.37;;;0.37;;
10333;SDS011;5212;47.892;16.406;2023-12-20T12:54:32;0.70;;;0.53;;
10333;SDS011;5212;47.892;16.406;2023-12-20T12:56:59;1.30;;;0.60;;
10333;SDS011;5212;47.892;16.406;2023-12-20T12:59:26;0.53;;;0.53;;
10333;SDS011;5212;47.892;16.406;2023-12-20T13:01:52;0.97;;;0.50;;
10333;SDS011;5212;47.892;16.406;2023-12-20T13:04:19;0.70;;;0.60;;
10333;SDS011;5212;47.892;16.406;2023-12-20T13:06:46;0.60;;;0.60;;
10333;SDS011;5212;47.892;16.406;2023-12-20T13:09:14;0.63;;;0.50;;
10333;SDS011;5212;47.892;16.406;2023-12-20T13:11:41;1.40;;;0.63;;
10333;SDS011;5212;47.892;16.406;2023-12-20T13:14:10;0.57;;;0.40;;
10333;SDS011;5212;47.892;16.406;2023-12-20T13:16:40;0.60;;;0.60;;
10333;SDS011;5212;47.892;16.406;2023-12-20T13:19:07;1.07;;;0.60;;
10333;SDS011;5212;47.892;16.406;2023-12-20T13:21:35;1.37;;;0.60;;
10333;SDS011;5212;47.892;16.406;2023-12-20T13:24:01;0.80;;;0.70;;
10333;SDS011;5212;47.892;16.406;2023-12-20T13:26:30;0.80;;;0.80;;
10333;SDS011;5212;47.892;16.406;2023-12-20T13:28:56;0.90;;;0.60;;
10333;SDS011;5212;47.892;16.406;2023-12-20T13:31:23;0.73;;;0.70;;
10333;SDS011;5212;47.892;16.406;2023-12-20T13:33:50;0.87;;;0.70;;
10333;SDS011;5212;47.892;16.406;2023-12-20T13:36:17;0.80;;;0.70;;
10333;SDS011;5212;47.892;16.406;2023-12-20T13:38:44;0.70;;;0.60;;
10333;SDS011;5212;47.892;16.406;2023-12-20T13:41:10;0.53;;;0.53;;
10333;SDS011;5212;47.892;16.406;2023-12-20T13:43:38;0.73;;;0.60;;
10333;SDS011;5212;47.892;16.406;2023-12-20T13:46:05;0.70;;;0.60;;
10333;SDS011;5212;47.892;16.406;2023-12-20T13:48:32;0.50;;;0.50;;
10333;SDS011;5212;47.892;16.406;2023-12-20T13:50:59;1.00;;;0.50;;
10333;SDS011;5212;47.892;16.406;2023-12-20T13:53:25;0.80;;;0.60;;
10333;SDS011;5212;47.892;16.406;2023-12-20T13:55:53;0.83;;;0.63;;
10333;SDS011;5212;47.892;16.406;2023-12-20T13:58:20;0.90;;;0.60;;
10333;SDS011;5212;47.892;16.406;2023-12-20T14:00:48;0.53;;;0.53;;
10333;SDS011;5212;47.892;16.406;2023-12-20T14:03:14;0.67;;;0.60;;
10333;SDS011;5212;47.892;16.406;2023-12-20T14:05:41;1.00;;;0.60;;
10333;SDS011;5212;47.892;16.406;2023-12-20T14:08:08;0.73;;;0.50;;
10333;SDS011;5212;47.892;16.406;2023-12-20T14:10:35;0.67;;;0.60;;
10333;SDS011;5212;47.892;16.406;2023-12-20T14:13:03;2.03;;;0.80;;
10333;SDS011;5212;47.892;16.406;2023-12-20T14:15:30;0.73;;;0.70;;
10333;SDS011;5212;47.892;16.406;2023-12-20T14:18:03;0.47;;;0.47;;
10333;SDS011;5212;47.892;16.406;2023-12-20T14:20:32;0.93;;;0.60;;
10333;SDS011;5212;47.892;16.406;2023-12-20T14:22:59;0.83;;;0.50;;
10333;SDS011;5212;47.892;16.406;2023-12-20T14:25:26;0.70;;;0.60;;
10333;SDS011;5212;47.892;16.406;2023-12-20T14:27:53;0.97;;;0.57;;
10333;SDS011;5212;47.892;16.406;2023-12-20T14:30:19;0.67;;;0.60;;
10333;SDS011;5212;47.892;16.406;2023-12-20T14:32:46;0.80;;;0.80;;
10333;SDS011;5212;47.892;16.406;2023-12-20T14:35:14;0.67;;;0.53;;
10333;SDS011;5212;47.892;16.406;2023-12-20T14:37:41;0.80;;;0.60;;